createdAt,value
2018-01-03T00:00:18.894Z,79.88
2018-01-03T00:01:18.889Z,79.97
2018-01-03T00:02:18.896Z,79.12
2018-01-03T00:03:18.875Z,79.12
2018-01-03T00:04:18.873Z,79.60
2018-01-03T00:05:18.863Z,79.31
2018-01-03T00:06:18.858Z,79.03
2018-01-03T00:07:18.856Z,78.64
2018-01-03T00:08:18.851Z,78.64
2018-01-03T00:09:18.839Z,78.74
2018-01-03T00:10:18.836Z,78.55
2018-01-03T00:11:18.830Z,78.36
2018-01-03T00:12:18.826Z,78.36
2018-01-03T00:13:18.855Z,78.45
2018-01-03T00:14:18.819Z,78.17
2018-01-03T00:15:18.806Z,78.08
2018-01-03T00:16:18.801Z,77.70
2018-01-03T00:17:18.829Z,77.51
2018-01-03T00:18:18.790Z,77.89
2018-01-03T00:19:18.783Z,77.79
2018-01-03T00:20:18.776Z,77.51
2018-01-03T00:21:18.773Z,77.70
2018-01-03T00:22:18.767Z,77.89
2018-01-03T00:23:18.761Z,78.08
2018-01-03T00:24:18.755Z,77.70
2018-01-03T00:25:18.748Z,77.89
2018-01-03T00:26:18.760Z,77.98
2018-01-03T00:27:18.738Z,77.60
2018-01-03T00:28:18.731Z,77.89
2018-01-03T00:29:18.724Z,77.70
2018-01-03T00:30:18.720Z,77.89
2018-01-03T00:31:18.741Z,77.70
2018-01-03T00:32:18.707Z,78.17
2018-01-03T00:33:18.700Z,78.08
2018-01-03T00:34:18.695Z,77.89
2018-01-03T00:35:18.702Z,78.08
2018-01-03T00:36:18.689Z,78.27
2018-01-03T00:37:18.678Z,77.41
2018-01-03T00:38:18.687Z,77.89
2018-01-03T00:39:18.670Z,78.08
2018-01-03T00:40:18.662Z,77.31
2018-01-03T00:41:18.657Z,77.31
2018-01-03T00:42:18.670Z,77.60
2018-01-03T00:43:18.645Z,77.41
2018-01-03T00:44:18.643Z,77.60
2018-01-03T00:45:18.634Z,77.41
2018-01-03T00:46:18.662Z,77.41
2018-01-03T00:47:18.623Z,77.51
2018-01-03T00:48:18.617Z,77.51
2018-01-03T00:49:18.645Z,77.79
2018-01-03T00:50:18.606Z,77.51
2018-01-03T00:51:18.601Z,77.60
2018-01-03T00:52:18.595Z,77.60
2018-01-03T00:53:18.589Z,77.79
2018-01-03T00:54:18.630Z,77.51
2018-01-03T00:55:18.580Z,77.70
2018-01-03T00:56:18.572Z,77.60
2018-01-03T00:57:18.565Z,77.60
2018-01-03T00:58:18.565Z,77.22
2018-01-03T00:59:18.579Z,77.70
2018-01-03T01:00:18.550Z,77.79
2018-01-03T01:01:18.542Z,77.98
2018-01-03T01:02:18.560Z,77.70
2018-01-03T01:03:18.532Z,78.27
2018-01-03T01:04:18.527Z,77.79
2018-01-03T01:05:18.521Z,77.41
2018-01-03T01:06:18.516Z,77.41
2018-01-03T01:07:18.509Z,77.22
2018-01-03T01:08:18.505Z,77.60
2018-01-03T01:09:18.501Z,77.31
2018-01-03T01:10:18.495Z,77.79
2018-01-03T01:11:18.488Z,77.89
2018-01-03T01:12:18.482Z,77.89
2018-01-03T01:13:18.476Z,78.17
2018-01-03T01:14:18.471Z,77.89
2018-01-03T01:15:18.467Z,77.70
2018-01-03T01:16:18.458Z,77.70
2018-01-03T01:17:18.452Z,78.27
2018-01-03T01:18:18.447Z,77.70
2018-01-03T01:19:18.442Z,77.79
2018-01-03T01:20:18.437Z,77.98
2018-01-03T01:21:18.433Z,78.17
2018-01-03T01:22:18.426Z,78.08
2018-01-03T01:23:18.419Z,78.08
2018-01-03T01:24:18.414Z,77.79
2018-01-03T01:25:18.408Z,77.98
2018-01-03T01:26:18.403Z,78.08
2018-01-03T01:27:18.395Z,77.79
2018-01-03T01:28:18.390Z,77.79
2018-01-03T01:29:18.387Z,77.79
2018-01-03T01:30:18.416Z,77.70
2018-01-03T01:31:18.374Z,77.60
2018-01-03T01:32:18.387Z,77.51
2018-01-03T01:33:18.361Z,77.89
2018-01-03T01:34:18.357Z,78.08
2018-01-03T01:35:18.354Z,77.89
2018-01-03T01:36:18.345Z,78.08
2018-01-03T01:37:18.343Z,78.17
2018-01-03T01:38:18.335Z,78.27
2018-01-03T01:39:18.331Z,78.08
2018-01-03T01:40:18.324Z,77.79
2018-01-03T01:41:18.316Z,77.79
2018-01-03T01:42:18.312Z,77.41
2018-01-03T01:43:18.310Z,77.70
2018-01-03T01:44:18.302Z,77.51
2018-01-03T01:45:18.296Z,77.89
2018-01-03T01:46:18.289Z,78.17
2018-01-03T01:47:18.283Z,78.36
2018-01-03T01:48:18.277Z,77.89
2018-01-03T01:49:18.271Z,77.79
2018-01-03T01:50:18.267Z,77.51
2018-01-03T01:51:18.264Z,77.79
2018-01-03T01:52:18.260Z,77.70
2018-01-03T01:53:18.249Z,78.08
2018-01-03T01:54:18.245Z,78.08
2018-01-03T01:55:18.238Z,77.89
2018-01-03T01:56:18.234Z,77.51
2018-01-03T01:57:18.229Z,77.60
2018-01-03T01:58:18.222Z,77.98
2018-01-03T01:59:18.216Z,77.98
2018-01-03T02:00:18.210Z,78.08
2018-01-03T02:01:18.206Z,77.89
2018-01-03T02:02:18.198Z,78.08
2018-01-03T02:03:18.192Z,77.89
2018-01-03T02:04:18.188Z,77.79
2018-01-03T02:05:18.181Z,77.41
2018-01-03T02:06:18.176Z,77.60
2018-01-03T02:07:18.170Z,77.79
2018-01-03T02:08:18.166Z,77.89
2018-01-03T02:09:18.159Z,77.98
2018-01-03T02:10:18.159Z,78.27
2018-01-03T02:11:18.148Z,78.45
2018-01-03T02:12:18.141Z,78.08
2018-01-03T02:13:18.135Z,77.79
2018-01-03T02:14:18.129Z,78.27
2018-01-03T02:15:18.127Z,78.45
2018-01-03T02:16:18.119Z,78.55
2018-01-03T02:17:18.112Z,79.12
2018-01-03T02:18:18.108Z,78.93
2018-01-03T02:19:18.107Z,79.60
2018-01-03T02:20:18.097Z,80.55
2018-01-03T02:21:18.090Z,81.02
2018-01-03T02:22:18.085Z,81.78
2018-01-03T02:23:18.080Z,82.35
2018-01-03T02:24:18.074Z,82.92
2018-01-03T02:25:18.066Z,83.30
2018-01-03T02:26:18.065Z,83.68
2018-01-03T02:27:18.055Z,83.59
2018-01-03T02:28:18.050Z,83.78
2018-01-03T02:29:18.044Z,83.87
2018-01-03T02:30:18.042Z,84.25
2018-01-03T02:31:18.033Z,83.87
2018-01-03T02:32:18.028Z,83.78
2018-01-03T02:33:18.022Z,84.63
2018-01-03T02:34:18.018Z,84.72
2018-01-03T02:35:18.021Z,84.53
2018-01-03T02:36:18.006Z,85.01
2018-01-03T02:37:17.996Z,84.25
2018-01-03T02:38:17.992Z,83.87
2018-01-03T02:39:17.989Z,84.16
2018-01-03T02:40:17.982Z,84.06
2018-01-03T02:41:17.977Z,84.63
2018-01-03T02:42:17.974Z,84.72
2018-01-03T02:43:17.964Z,84.63
2018-01-03T02:44:17.956Z,84.16
2018-01-03T02:45:17.952Z,84.72
2018-01-03T02:46:17.948Z,84.72
2018-01-03T02:47:17.941Z,84.34
2018-01-03T02:48:17.936Z,84.25
2018-01-03T02:49:17.929Z,84.34
2018-01-03T02:50:17.925Z,84.16
2018-01-03T02:51:17.917Z,83.97
2018-01-03T02:52:17.913Z,84.25
2018-01-03T02:53:17.907Z,84.06
2018-01-03T02:54:17.900Z,83.97
2018-01-03T02:55:17.896Z,84.91
2018-01-03T02:56:17.891Z,84.91
2018-01-03T02:57:17.884Z,84.63
2018-01-03T02:58:17.881Z,84.34
2018-01-03T02:59:17.873Z,84.82
2018-01-03T03:00:17.868Z,84.82
2018-01-03T03:01:17.862Z,84.72
2018-01-03T03:02:17.858Z,84.44
2018-01-03T03:03:17.848Z,85.01
2018-01-03T03:04:17.843Z,85.39
2018-01-03T03:05:17.838Z,85.58
2018-01-03T03:06:17.837Z,85.77
2018-01-03T03:07:17.826Z,86.15
2018-01-03T03:08:17.824Z,86.43
2018-01-03T03:09:17.814Z,86.24
2018-01-03T03:10:17.810Z,86.91
2018-01-03T03:11:17.805Z,86.43
2018-01-03T03:12:17.800Z,86.82
2018-01-03T03:13:17.792Z,87.86
2018-01-03T03:14:17.789Z,87.76
2018-01-03T03:15:17.787Z,88.43
2018-01-03T03:16:17.776Z,88.62
2018-01-03T03:17:17.766Z,89.19
2018-01-03T03:18:17.763Z,89.67
2018-01-03T03:19:17.760Z,89.57
2018-01-03T03:20:17.752Z,90.14
2018-01-03T03:21:17.746Z,90.61
2018-01-03T03:22:17.741Z,91.47
2018-01-03T03:23:17.733Z,91.09
2018-01-03T03:24:17.732Z,91.04
2018-01-03T03:25:17.727Z,91.24
2018-01-03T03:26:17.720Z,91.04
2018-01-03T03:27:17.710Z,91.24
2018-01-03T03:28:17.703Z,91.33
2018-01-03T03:29:17.697Z,91.14
2018-01-03T03:30:17.694Z,91.52
2018-01-03T03:31:17.702Z,90.95
2018-01-03T03:32:17.685Z,92.28
2018-01-03T03:33:17.672Z,91.33
2018-01-03T03:34:17.666Z,91.24
2018-01-03T03:35:17.659Z,90.76
2018-01-03T03:36:17.654Z,90.00
2018-01-03T03:37:17.647Z,90.00
2018-01-03T03:38:17.642Z,90.47
2018-01-03T03:39:17.643Z,90.09
2018-01-03T03:40:17.632Z,90.19
2018-01-03T03:41:17.621Z,90.09
2018-01-03T03:42:17.618Z,89.90
2018-01-03T03:43:17.610Z,89.53
2018-01-03T03:44:17.605Z,89.81
2018-01-03T03:45:17.597Z,90.47
2018-01-03T03:46:17.598Z,90.00
2018-01-03T03:47:17.584Z,90.09
2018-01-03T03:48:17.579Z,89.53
2018-01-03T03:49:17.570Z,90.28
2018-01-03T03:50:17.565Z,90.38
2018-01-03T03:51:17.560Z,90.19
2018-01-03T03:52:17.554Z,89.90
2018-01-03T03:53:17.553Z,90.09
2018-01-03T03:54:17.541Z,89.72
2018-01-03T03:55:17.534Z,89.72
2018-01-03T03:56:17.526Z,89.62
2018-01-03T03:57:17.520Z,90.09
2018-01-03T03:58:17.515Z,89.81
2018-01-03T03:59:17.509Z,89.72
2018-01-03T04:00:17.501Z,90.19
2018-01-03T04:01:17.496Z,90.19
2018-01-03T04:02:17.489Z,90.09
2018-01-03T04:03:17.483Z,90.00
2018-01-03T04:04:17.477Z,89.90
2018-01-03T04:05:17.469Z,89.81
2018-01-03T04:06:17.464Z,90.57
2018-01-03T04:07:17.458Z,89.81
2018-01-03T04:08:17.455Z,90.00
2018-01-03T04:09:17.443Z,89.43
2018-01-03T04:10:17.440Z,89.62
2018-01-03T04:11:17.432Z,89.53
2018-01-03T04:12:17.429Z,89.90
2018-01-03T04:13:17.430Z,89.90
2018-01-03T04:14:17.412Z,89.53
2018-01-03T04:15:17.405Z,89.72
2018-01-03T04:16:17.400Z,90.00
2018-01-03T04:17:17.393Z,89.90
2018-01-03T04:18:38.395Z,89.81
2018-01-03T04:19:17.382Z,89.81
2018-01-03T04:20:17.376Z,89.81
2018-01-03T04:21:17.369Z,90.00
2018-01-03T04:22:17.366Z,89.81
2018-01-03T04:23:17.355Z,89.53
2018-01-03T04:24:17.350Z,89.53
2018-01-03T04:25:17.341Z,89.24
2018-01-03T04:26:17.336Z,89.72
2018-01-03T04:27:17.330Z,89.33
2018-01-03T04:28:17.325Z,89.62
2018-01-03T04:29:17.317Z,89.43
2018-01-03T04:30:17.314Z,89.53
2018-01-03T04:31:17.306Z,89.33
2018-01-03T04:32:17.304Z,88.95
2018-01-03T04:33:17.296Z,89.05
2018-01-03T04:34:17.291Z,89.24
2018-01-03T04:35:17.280Z,88.86
2018-01-03T04:36:17.274Z,88.86
2018-01-03T04:37:17.268Z,89.33
2018-01-03T04:38:17.261Z,88.95
2018-01-03T04:39:17.256Z,88.67
2018-01-03T04:40:17.249Z,88.86
2018-01-03T04:41:17.250Z,88.76
2018-01-03T04:42:17.239Z,89.05
2018-01-03T04:43:17.229Z,88.86
2018-01-03T04:44:17.223Z,88.67
2018-01-03T04:45:17.216Z,88.29
2018-01-03T04:46:17.214Z,88.01
2018-01-03T04:47:17.207Z,88.76
2018-01-03T04:48:17.199Z,88.67
2018-01-03T04:49:17.193Z,88.76
2018-01-03T04:50:17.187Z,88.67
2018-01-03T04:51:17.181Z,88.71
2018-01-03T04:52:17.178Z,88.48
2018-01-03T04:53:17.168Z,89.00
2018-01-03T04:54:17.162Z,89.09
2018-01-03T04:55:17.158Z,89.38
2018-01-03T04:56:17.151Z,89.47
2018-01-03T04:57:17.149Z,90.05
2018-01-03T04:58:17.142Z,90.33
2018-01-03T04:59:17.133Z,90.05
2018-01-03T05:00:17.126Z,90.38
2018-01-03T05:01:17.121Z,90.80
2018-01-03T05:02:17.134Z,91.52
2018-01-03T05:03:17.109Z,91.99
2018-01-03T05:04:17.103Z,92.13
2018-01-03T05:05:17.101Z,92.85
2018-01-03T05:06:17.090Z,93.56
2018-01-03T05:07:17.084Z,94.74
2018-01-03T05:08:17.079Z,95.08
2018-01-03T05:09:17.072Z,94.42
2018-01-03T05:10:17.069Z,94.84
2018-01-03T05:11:17.061Z,95.22
2018-01-03T05:12:17.053Z,95.51
2018-01-03T05:13:17.051Z,96.45
2018-01-03T05:14:17.041Z,97.12
2018-01-03T05:15:17.035Z,97.02
2018-01-03T05:16:17.030Z,96.93
2018-01-03T05:17:17.022Z,96.83
2018-01-03T05:18:17.016Z,97.12
2018-01-03T05:19:17.012Z,97.31
2018-01-03T05:20:17.002Z,97.22
2018-01-03T05:21:16.995Z,97.69
2018-01-03T05:22:16.991Z,97.69
2018-01-03T05:23:16.985Z,97.97
2018-01-03T05:24:16.977Z,97.88
2018-01-03T05:25:16.971Z,97.97
2018-01-03T05:26:16.965Z,98.07
2018-01-03T05:27:16.962Z,98.45
2018-01-03T05:28:17.465Z,98.26
2018-01-03T05:29:16.946Z,98.07
2018-01-03T05:30:16.940Z,98.45
2018-01-03T05:31:16.932Z,98.73
2018-01-03T05:32:16.926Z,97.97
2018-01-03T05:33:16.924Z,97.97
2018-01-03T05:34:16.915Z,98.35
2018-01-03T05:35:16.909Z,98.07
2018-01-03T05:36:16.914Z,97.78
2018-01-03T05:37:16.896Z,98.26
2018-01-03T05:38:16.958Z,97.50
2018-01-03T05:39:16.879Z,97.31
2018-01-03T05:40:16.876Z,97.41
2018-01-03T05:41:16.869Z,97.41
2018-01-03T05:42:16.861Z,97.50
2018-01-03T05:43:16.855Z,97.31
2018-01-03T05:44:16.848Z,97.02
2018-01-03T05:45:16.842Z,97.02
2018-01-03T05:46:16.836Z,97.02
2018-01-03T05:47:16.831Z,96.93
2018-01-03T05:48:16.825Z,97.50
2018-01-03T05:49:16.816Z,97.12
2018-01-03T05:50:16.810Z,97.31
2018-01-03T05:51:16.889Z,97.12
2018-01-03T05:52:16.797Z,96.55
2018-01-03T05:53:16.790Z,97.41
2018-01-03T05:54:16.784Z,96.64
2018-01-03T05:55:16.775Z,96.17
2018-01-03T05:56:16.772Z,96.08
2018-01-03T05:57:16.764Z,96.08
2018-01-03T05:58:16.761Z,96.08
2018-01-03T05:59:16.754Z,95.98
2018-01-03T06:00:16.745Z,96.08
2018-01-03T06:01:16.738Z,96.36
2018-01-03T06:02:16.730Z,96.60
2018-01-03T06:03:16.725Z,96.50
2018-01-03T06:04:16.756Z,96.60
2018-01-03T06:05:16.712Z,96.74
2018-01-03T06:06:16.706Z,97.07
2018-01-03T06:07:16.710Z,97.12
2018-01-03T06:08:16.692Z,96.50
2018-01-03T06:09:16.687Z,96.79
2018-01-03T06:10:16.682Z,96.88
2018-01-03T06:11:16.674Z,97.36
2018-01-03T06:12:16.690Z,97.17
2018-01-03T06:13:16.661Z,96.79
2018-01-03T06:14:16.655Z,97.17
2018-01-03T06:15:16.651Z,97.45
2018-01-03T06:16:16.645Z,97.27
2018-01-03T06:17:16.641Z,97.45
2018-01-03T06:18:16.633Z,97.45
2018-01-03T06:19:16.627Z,96.79
2018-01-03T06:20:16.628Z,96.98
2018-01-03T06:21:16.614Z,97.27
2018-01-03T06:22:16.611Z,97.45
2018-01-03T06:23:16.605Z,97.27
2018-01-03T06:24:16.595Z,97.55
2018-01-03T06:25:16.587Z,97.36
2018-01-03T06:26:16.595Z,97.55
2018-01-03T06:27:16.577Z,97.92
2018-01-03T06:28:16.572Z,97.83
2018-01-03T06:29:16.565Z,98.12
2018-01-03T06:30:16.560Z,98.31
2018-01-03T06:31:16.551Z,98.31
2018-01-03T06:32:16.546Z,98.40
2018-01-03T06:33:16.540Z,97.92
2018-01-03T06:34:16.560Z,98.02
2018-01-03T06:35:16.530Z,98.69
2018-01-03T06:36:16.520Z,98.69
2018-01-03T06:37:16.517Z,98.97
2018-01-03T06:38:16.510Z,98.97
2018-01-03T06:39:16.506Z,98.88
2018-01-03T06:40:16.499Z,99.07
2018-01-03T06:41:16.492Z,98.40
2018-01-03T06:42:16.489Z,98.12
2018-01-03T06:43:16.566Z,98.59
2018-01-03T06:44:16.477Z,98.40
2018-01-03T06:45:16.470Z,97.83
2018-01-03T06:46:16.465Z,98.12
2018-01-03T06:47:16.458Z,97.92
2018-01-03T06:48:16.970Z,98.02
2018-01-03T06:49:16.445Z,98.12
2018-01-03T06:50:16.441Z,97.92
2018-01-03T06:51:16.438Z,97.36
2018-01-03T06:52:16.432Z,97.45
2018-01-03T06:53:16.426Z,97.17
2018-01-03T06:54:16.421Z,97.07
2018-01-03T06:55:16.423Z,97.27
2018-01-03T06:56:16.408Z,97.07
2018-01-03T06:57:16.398Z,96.88
2018-01-03T06:58:16.394Z,97.36
2018-01-03T06:59:16.441Z,96.98
2018-01-03T07:00:16.382Z,97.36
2018-01-03T07:01:16.376Z,97.17
2018-01-03T07:02:16.370Z,97.03
2018-01-03T07:03:16.364Z,97.36
2018-01-03T07:04:16.358Z,97.36
2018-01-03T07:05:16.352Z,96.93
2018-01-03T07:06:16.348Z,97.17
2018-01-03T07:07:16.371Z,97.07
2018-01-03T07:08:16.342Z,97.03
2018-01-03T07:09:16.329Z,97.41
2018-01-03T07:10:16.324Z,97.45
2018-01-03T07:11:16.317Z,97.03
2018-01-03T07:12:16.314Z,97.22
2018-01-03T07:13:16.309Z,97.60
2018-01-03T07:14:16.300Z,97.22
2018-01-03T07:15:16.296Z,97.03
2018-01-03T07:16:16.290Z,97.12
2018-01-03T07:17:16.286Z,97.50
2018-01-03T07:18:16.280Z,97.22
2018-01-03T07:19:16.275Z,97.12
2018-01-03T07:20:16.269Z,97.12
2018-01-03T07:21:16.261Z,97.22
2018-01-03T07:22:16.258Z,97.12
2018-01-03T07:23:16.251Z,97.69
2018-01-03T07:24:16.246Z,97.69
2018-01-03T07:25:16.242Z,97.12
2018-01-03T07:26:16.234Z,97.60
2018-01-03T07:27:16.292Z,97.60
2018-01-03T07:28:16.222Z,97.69
2018-01-03T07:29:16.220Z,97.50
2018-01-03T07:30:16.211Z,97.41
2018-01-03T07:31:16.210Z,97.69
2018-01-03T07:32:16.203Z,97.41
2018-01-03T07:33:16.196Z,97.12
2018-01-03T07:34:16.193Z,97.60
2018-01-03T07:35:16.185Z,97.50
2018-01-03T07:36:16.183Z,97.88
2018-01-03T07:37:16.174Z,97.55
2018-01-03T07:38:16.741Z,97.41
2018-01-03T07:39:16.439Z,97.69
2018-01-03T07:40:16.159Z,97.36
2018-01-03T07:41:16.157Z,97.45
2018-01-03T07:42:16.742Z,97.27
2018-01-03T07:43:16.140Z,97.08
2018-01-03T07:44:16.141Z,97.17
2018-01-03T07:45:16.128Z,97.83
2018-01-03T07:46:16.126Z,96.89
2018-01-03T07:47:16.120Z,97.17
2018-01-03T07:48:16.115Z,97.17
2018-01-03T07:49:16.307Z,97.36
2018-01-03T07:50:16.103Z,96.79
2018-01-03T07:51:16.212Z,96.50
2018-01-03T07:52:16.098Z,96.12
2018-01-03T07:53:16.794Z,95.94
2018-01-03T07:54:16.085Z,95.75
2018-01-03T07:55:16.076Z,95.60
2018-01-03T07:56:16.076Z,94.84
2018-01-03T07:57:16.158Z,95.41
2018-01-03T07:58:16.059Z,93.89
2018-01-03T07:59:16.057Z,94.46
2018-01-03T08:00:16.740Z,93.79
2018-01-03T08:01:16.063Z,92.75
2018-01-03T08:02:16.042Z,93.23
2018-01-03T08:03:16.037Z,93.23
2018-01-03T08:04:16.032Z,92.08
2018-01-03T08:05:16.027Z,91.51
2018-01-03T08:06:16.054Z,90.84
2018-01-03T08:07:16.016Z,90.89
2018-01-03T08:08:16.096Z,91.32
2018-01-03T08:09:16.012Z,90.89
2018-01-03T08:10:16.003Z,90.70
2018-01-03T08:11:15.998Z,90.61
2018-01-03T08:12:16.005Z,90.51
2018-01-03T08:13:15.996Z,90.22
2018-01-03T08:14:16.862Z,90.32
2018-01-03T08:15:15.979Z,89.37
2018-01-03T08:16:15.996Z,88.89
2018-01-03T08:17:15.993Z,88.42
2018-01-03T08:18:15.966Z,88.51
2018-01-03T08:19:16.761Z,87.75
2018-01-03T08:20:15.956Z,86.42
2018-01-03T08:21:15.954Z,85.94
2018-01-03T08:22:15.946Z,86.61
2018-01-03T08:23:15.945Z,86.22
2018-01-03T08:24:15.938Z,85.18
2018-01-03T08:25:15.942Z,84.52
2018-01-03T08:26:15.928Z,84.42
2018-01-03T08:27:15.929Z,83.56
2018-01-03T08:28:15.923Z,83.28
2018-01-03T08:29:16.750Z,82.14
2018-01-03T08:30:15.911Z,82.23
2018-01-03T08:31:15.913Z,80.94
2018-01-03T08:32:15.901Z,80.94
2018-01-03T08:33:15.991Z,80.94
2018-01-03T08:34:15.892Z,80.94
2018-01-03T08:35:15.890Z,80.65
2018-01-03T08:36:15.889Z,80.65
2018-01-03T08:37:15.884Z,80.84
2018-01-03T08:38:15.886Z,80.46
2018-01-03T08:39:15.871Z,80.08
2018-01-03T08:40:15.878Z,80.18
2018-01-03T08:41:16.762Z,80.36
2018-01-03T08:42:15.867Z,79.80
2018-01-03T08:43:15.859Z,80.27
2018-01-03T08:44:15.853Z,80.08
2018-01-03T08:45:15.849Z,80.08
2018-01-03T08:46:15.843Z,79.99
2018-01-03T08:47:15.839Z,79.60
2018-01-03T08:48:15.839Z,79.80
2018-01-03T08:49:15.835Z,80.36
2018-01-03T08:50:15.830Z,80.55
2018-01-03T08:51:15.825Z,80.84
2018-01-03T08:52:15.824Z,80.94
2018-01-03T08:53:15.817Z,80.94
2018-01-03T08:54:15.815Z,80.75
2018-01-03T08:55:15.810Z,80.94
2018-01-03T08:56:16.036Z,80.84
2018-01-03T08:57:15.802Z,80.84
2018-01-03T08:58:15.798Z,80.84
2018-01-03T08:59:15.792Z,80.36
2018-01-03T09:00:15.794Z,80.84
2018-01-03T09:01:15.787Z,80.75
2018-01-03T09:02:15.800Z,80.36
2018-01-03T09:03:15.781Z,80.36
2018-01-03T09:04:15.985Z,81.32
2018-01-03T09:05:16.794Z,80.46
2018-01-03T09:06:16.296Z,81.03
2018-01-03T09:07:15.894Z,80.84
2018-01-03T09:08:16.751Z,80.46
2018-01-03T09:09:16.767Z,80.46
2018-01-03T09:10:15.996Z,80.94
2018-01-03T09:11:16.751Z,80.65
2018-01-03T09:12:16.052Z,80.46
2018-01-03T09:13:16.770Z,80.36
2018-01-03T09:14:15.865Z,80.27
2018-01-03T09:15:16.757Z,80.75
2018-01-03T09:16:16.725Z,80.75
2018-01-03T09:17:16.022Z,80.84
2018-01-03T09:18:15.917Z,80.84
2018-01-03T09:19:15.940Z,80.94
2018-01-03T09:20:15.716Z,80.65
2018-01-03T09:21:15.717Z,80.27
2018-01-03T09:22:15.711Z,80.84
2018-01-03T09:23:15.706Z,80.36
2018-01-03T09:24:15.701Z,80.27
2018-01-03T09:25:15.697Z,80.08
2018-01-03T09:26:15.698Z,80.08
2018-01-03T09:27:15.689Z,79.60
2018-01-03T09:28:15.686Z,79.22
2018-01-03T09:29:15.682Z,79.70
2018-01-03T09:30:15.680Z,79.89
2018-01-03T09:31:15.675Z,79.89
2018-01-03T09:32:15.682Z,79.32
2018-01-03T09:33:15.668Z,79.51
2018-01-03T09:34:15.665Z,79.51
2018-01-03T09:35:15.672Z,79.22
2018-01-03T09:36:15.658Z,79.22
2018-01-03T09:37:15.654Z,79.32
2018-01-03T09:38:15.660Z,79.60
2018-01-03T09:39:15.648Z,79.32
2018-01-03T09:40:15.644Z,79.80
2018-01-03T09:41:15.639Z,79.13
2018-01-03T09:42:15.637Z,79.80
2018-01-03T09:43:15.631Z,79.89
2018-01-03T09:44:15.630Z,79.70
2018-01-03T09:45:15.628Z,79.13
2018-01-03T09:46:15.621Z,79.41
2018-01-03T09:47:15.617Z,79.99
2018-01-03T09:48:15.616Z,80.46
2018-01-03T09:49:15.613Z,80.27
2018-01-03T09:50:15.607Z,80.18
2018-01-03T09:51:15.605Z,80.65
2018-01-03T09:52:15.598Z,80.27
2018-01-03T09:53:15.598Z,80.27
2018-01-03T09:54:15.592Z,80.46
2018-01-03T09:55:15.590Z,80.27
2018-01-03T09:56:15.587Z,79.80
2018-01-03T09:57:15.582Z,80.08
2018-01-03T09:58:15.581Z,79.80
2018-01-03T09:59:15.579Z,79.89
2018-01-03T10:00:15.571Z,79.32
2018-01-03T10:01:15.569Z,79.22
2018-01-03T10:02:15.578Z,79.60
2018-01-03T10:03:15.566Z,79.17
2018-01-03T10:04:15.559Z,79.55
2018-01-03T10:05:15.555Z,79.27
2018-01-03T10:06:15.552Z,79.27
2018-01-03T10:07:15.550Z,79.46
2018-01-03T10:08:15.545Z,79.36
2018-01-03T10:09:15.541Z,78.88
2018-01-03T10:10:15.567Z,79.36
2018-01-03T10:11:15.535Z,78.50
2018-01-03T10:12:15.532Z,78.50
2018-01-03T10:13:15.537Z,78.22
2018-01-03T10:14:15.527Z,78.12
2018-01-03T10:15:15.523Z,78.03
2018-01-03T10:16:15.521Z,77.55
2018-01-03T10:17:15.520Z,77.17
2018-01-03T10:18:15.510Z,76.31
2018-01-03T10:19:15.508Z,76.03
2018-01-03T10:20:15.506Z,75.84
2018-01-03T10:21:15.501Z,76.12
2018-01-03T10:22:15.501Z,75.84
2018-01-03T10:23:15.494Z,76.03
2018-01-03T10:24:15.492Z,76.12
2018-01-03T10:25:15.486Z,76.31
2018-01-03T10:26:15.485Z,76.40
2018-01-03T10:27:15.480Z,76.40
2018-01-03T10:28:15.480Z,75.84
2018-01-03T10:29:15.473Z,75.64
2018-01-03T10:30:15.473Z,75.55
2018-01-03T10:31:15.468Z,74.60
2018-01-03T10:32:15.463Z,75.26
2018-01-03T10:33:15.532Z,74.98
2018-01-03T10:34:15.502Z,74.60
2018-01-03T10:35:15.461Z,74.40
2018-01-03T10:36:15.451Z,74.69
2018-01-03T10:37:15.450Z,73.87
2018-01-03T10:38:15.447Z,74.40
2018-01-03T10:39:15.534Z,74.60
2018-01-03T10:40:15.442Z,73.83
2018-01-03T10:41:15.436Z,73.74
2018-01-03T10:42:15.435Z,73.77
2018-01-03T10:43:15.430Z,73.26
2018-01-03T10:44:15.466Z,73.26
2018-01-03T10:45:15.425Z,72.97
2018-01-03T10:46:15.422Z,73.11
2018-01-03T10:47:15.422Z,73.49
2018-01-03T10:48:15.420Z,72.82
2018-01-03T10:49:15.414Z,73.58
2018-01-03T10:50:15.434Z,72.92
2018-01-03T10:51:15.423Z,73.30
2018-01-03T10:52:15.449Z,73.45
2018-01-03T10:53:15.405Z,74.50
2018-01-03T10:54:15.403Z,75.26
2018-01-03T10:55:15.410Z,78.98
2018-01-03T10:56:15.394Z,82.32
2018-01-03T10:57:15.394Z,86.42
2018-01-03T10:58:15.403Z,89.61
2018-01-03T10:59:15.384Z,89.00
2018-01-03T11:00:15.381Z,91.08
2018-01-03T11:01:15.377Z,90.33
2018-01-03T11:02:15.375Z,90.66
2018-01-03T11:03:15.372Z,89.61
2018-01-03T11:04:15.364Z,90.19
2018-01-03T11:05:15.360Z,90.19
2018-01-03T11:06:15.364Z,89.80
2018-01-03T11:07:15.352Z,90.47
2018-01-03T11:08:15.354Z,90.19
2018-01-03T11:09:15.357Z,89.90
2018-01-03T11:10:15.355Z,89.42
2018-01-03T11:11:15.336Z,88.85
2018-01-03T11:12:15.329Z,89.04
2018-01-03T11:13:15.323Z,89.61
2018-01-03T11:14:15.319Z,89.33
2018-01-03T11:15:15.312Z,89.33
2018-01-03T11:16:15.347Z,89.33
2018-01-03T11:17:15.305Z,89.23
2018-01-03T11:18:15.300Z,89.04
2018-01-03T11:19:15.293Z,88.95
2018-01-03T11:20:15.291Z,88.00
2018-01-03T11:21:15.283Z,88.47
2018-01-03T11:22:15.278Z,87.62
2018-01-03T11:23:15.273Z,87.81
2018-01-03T11:24:15.269Z,88.00
2018-01-03T11:25:15.261Z,87.62
2018-01-03T11:26:15.257Z,87.24
2018-01-03T11:27:15.336Z,86.67
2018-01-03T11:28:15.287Z,85.91
2018-01-03T11:29:15.244Z,87.34
2018-01-03T11:30:15.237Z,86.19
2018-01-03T11:31:15.231Z,85.72
2018-01-03T11:32:15.232Z,85.43
2018-01-03T11:33:15.219Z,85.53
2018-01-03T11:34:15.217Z,86.38
2018-01-03T11:35:15.210Z,87.05
2018-01-03T11:36:15.205Z,86.47
2018-01-03T11:37:15.200Z,85.53
2018-01-03T11:38:15.217Z,85.05
2018-01-03T11:39:15.185Z,84.95
2018-01-03T11:40:15.183Z,85.53
2018-01-03T11:41:15.174Z,85.05
2018-01-03T11:42:15.171Z,84.77
2018-01-03T11:43:15.169Z,84.77
2018-01-03T11:44:15.161Z,84.29
2018-01-03T11:45:15.159Z,85.05
2018-01-03T11:46:15.150Z,84.48
2018-01-03T11:47:15.147Z,83.44
2018-01-03T11:48:15.141Z,83.62
2018-01-03T11:49:15.134Z,84.20
2018-01-03T11:50:15.128Z,84.29
2018-01-03T11:51:15.120Z,84.39
2018-01-03T11:52:15.120Z,83.53
2018-01-03T11:53:15.112Z,83.34
2018-01-03T11:54:15.114Z,83.62
2018-01-03T11:55:15.106Z,83.91
2018-01-03T11:56:15.126Z,83.62
2018-01-03T11:57:15.090Z,83.72
2018-01-03T11:58:15.086Z,83.72
2018-01-03T11:59:15.080Z,83.91
2018-01-03T12:00:15.074Z,83.91
2018-01-03T12:01:15.070Z,82.96
2018-01-03T12:02:15.116Z,84.20
2018-01-03T12:03:15.059Z,83.91
2018-01-03T12:04:15.055Z,83.82
2018-01-03T12:05:15.050Z,83.44
2018-01-03T12:06:15.048Z,83.15
2018-01-03T12:07:15.038Z,83.48
2018-01-03T12:08:15.035Z,83.19
2018-01-03T12:09:15.029Z,82.91
2018-01-03T12:10:15.024Z,83.39
2018-01-03T12:11:15.036Z,82.43
2018-01-03T12:12:15.014Z,82.05
2018-01-03T12:13:15.019Z,83.10
2018-01-03T12:14:15.239Z,83.29
2018-01-03T12:15:15.192Z,82.71
2018-01-03T12:16:15.138Z,82.34
2018-01-03T12:17:15.013Z,81.96
2018-01-03T12:18:14.988Z,81.67
2018-01-03T12:19:14.978Z,81.48
2018-01-03T12:20:14.995Z,80.44
2018-01-03T12:21:14.972Z,80.63
2018-01-03T12:22:14.964Z,81.29
2018-01-03T12:23:14.958Z,81.58
2018-01-03T12:24:14.955Z,80.82
2018-01-03T12:25:14.948Z,80.44
2018-01-03T12:26:14.945Z,80.63
2018-01-03T12:27:14.941Z,81.29
2018-01-03T12:28:14.935Z,81.48
2018-01-03T12:29:14.927Z,80.72
2018-01-03T12:30:14.947Z,80.24
2018-01-03T12:31:14.918Z,79.77
2018-01-03T12:32:14.917Z,79.39
2018-01-03T12:33:14.911Z,79.11
2018-01-03T12:34:14.903Z,79.01
2018-01-03T12:35:14.901Z,79.39
2018-01-03T12:36:14.899Z,79.58
2018-01-03T12:37:14.891Z,78.91
2018-01-03T12:38:14.888Z,78.72
2018-01-03T12:39:14.883Z,78.34
2018-01-03T12:40:14.877Z,78.16
2018-01-03T12:41:14.870Z,78.53
2018-01-03T12:42:14.872Z,78.16
2018-01-03T12:43:14.863Z,78.91
2018-01-03T12:44:14.859Z,78.44
2018-01-03T12:45:14.856Z,78.72
2018-01-03T12:46:14.849Z,77.87
2018-01-03T12:47:14.845Z,78.16
2018-01-03T12:48:14.841Z,77.77
2018-01-03T12:49:14.835Z,78.34
2018-01-03T12:50:14.833Z,78.53
2018-01-03T12:51:14.824Z,78.53
2018-01-03T12:52:14.821Z,78.06